Time;durP1;ratioP1;P1;durP2;ratioP2;P2;SDS_P1;SDS_P2;PMS_P1;PMS_P2;Temp;Humidity;BMP_temperature;BMP_pressure;BME280_temperature;BME280_humidity;BME280_pressure;Samples;Min_cycle;Max_cycle;Signal;HPM_P1;HPM_P2
2021/11/04 00:00:33;;;;;;;;;;;20.50;46.10;;;;;;474512;251;1285;-47
2021/11/04 00:02:34;;;;;;;;;;;20.50;46.10;;;;;;474612;251;1216;-48
2021/11/04 00:04:36;;;;;;;;;;;20.60;46.10;;;;;;474331;251;2186;-47
2021/11/04 00:06:37;;;;;;;;;;;20.50;46.10;;;;;;474456;251;1466;-47
2021/11/04 00:08:38;;;;;;;;;;;20.50;46.00;;;;;;474470;251;1087;-47
2021/11/04 00:10:40;;;;;;;;;;;20.60;46.10;;;;;;474204;251;1068;-48
2021/11/04 00:12:41;;;;;;;;;;;20.50;46.00;;;;;;474150;251;1198;-47
2021/11/04 00:14:43;;;;;;;;;;;20.50;46.10;;;;;;474531;251;1143;-47
2021/11/04 00:16:44;;;;;;;;;;;20.50;46.20;;;;;;474271;251;1444;-47
2021/11/04 00:18:45;;;;;;;;;;;20.50;46.30;;;;;;474228;251;1270;-47
2021/11/04 00:20:46;;;;;;;;;;;20.50;46.20;;;;;;474207;244;1346;-48
2021/11/04 00:22:48;;;;;;;;;;;20.50;46.20;;;;;;474423;251;1157;-47
2021/11/04 00:24:49;;;;;;;;;;;20.50;46.20;;;;;;474519;251;2188;-47
2021/11/04 00:26:50;;;;;;;;;;;20.50;46.20;;;;;;474627;251;1706;-47
2021/11/04 00:28:53;;;;;;;;;;;20.60;46.20;;;;;;474567;251;1119;-47
2021/11/04 00:30:53;;;;;;;;;;;20.50;46.10;;;;;;474165;251;1660;-47
2021/11/04 00:32:55;;;;;;;;;;;20.50;46.10;;;;;;474656;251;990;-47
2021/11/04 00:34:56;;;;;;;;;;;20.60;46.20;;;;;;474610;251;1082;-47
2021/11/04 00:36:57;;;;;;;;;;;20.60;46.10;;;;;;474178;251;1161;-47
2021/11/04 00:38:59;;;;;;;;;;;20.60;46.10;;;;;;474647;251;998;-47
2021/11/04 00:41:00;;;;;;;;;;;20.60;46.10;;;;;;474461;251;1161;-47
2021/11/04 00:43:01;;;;;;;;;;;20.60;46.10;;;;;;474274;251;1035;-47
2021/11/04 00:45:03;;;;;;;;;;;20.60;46.10;;;;;;474685;251;2121;-47
2021/11/04 00:47:04;;;;;;;;;;;20.50;46.10;;;;;;474329;251;1207;-47
2021/11/04 00:49:05;;;;;;;;;;;20.60;46.10;;;;;;474709;251;1061;-47
2021/11/04 00:51:07;;;;;;;;;;;20.60;46.10;;;;;;474571;251;1179;-48
2021/11/04 00:53:08;;;;;;;;;;;20.50;46.10;;;;;;474254;251;2310;-47
2021/11/04 00:55:09;;;;;;;;;;;20.50;46.10;;;;;;474717;251;1049;-47
2021/11/04 00:57:11;;;;;;;;;;;20.50;46.10;;;;;;474261;251;1182;-47
2021/11/04 00:59:12;;;;;;;;;;;20.50;46.00;;;;;;474718;251;1100;-47
2021/11/04 01:01:13;;;;;;;;;;;20.50;46.10;;;;;;474215;251;1347;-47
2021/11/04 01:03:15;;;;;;;;;;;20.60;46.20;;;;;;474663;251;1185;-47
2021/11/04 01:05:16;;;;;;;;;;;20.60;46.10;;;;;;474277;251;2189;-47
2021/11/04 01:07:17;;;;;;;;;;;20.60;46.00;;;;;;474181;251;1132;-47
2021/11/04 01:09:18;;;;;;;;;;;20.50;46.00;;;;;;474237;251;1110;-47
2021/11/04 01:11:22;;;;;;;;;;;20.50;46.00;;;;;;474574;251;1098;-47
2021/11/04 01:13:21;;;;;;;;;;;20.60;46.10;;;;;;474321;251;1586;-47
2021/11/04 01:15:22;;;;;;;;;;;20.50;46.00;;;;;;474627;251;1119;-47
2021/11/04 01:17:24;;;;;;;;;;;20.50;46.10;;;;;;474208;251;1602;-47
2021/11/04 01:19:25;;;;;;;;;;;20.60;46.20;;;;;;474614;251;1180;-47
2021/11/04 01:21:26;;;;;;;;;;;20.50;46.10;;;;;;474268;251;1374;-47
2021/11/04 01:23:28;;;;;;;;;;;20.50;46.10;;;;;;474434;251;1069;-47
2021/11/04 01:25:31;;;;;;;;;;;20.60;46.20;;;;;;474689;251;2199;-47
2021/11/04 01:27:30;;;;;;;;;;;20.60;46.10;;;;;;474508;251;1638;-47
2021/11/04 01:29:32;;;;;;;;;;;20.50;46.10;;;;;;474254;251;1067;-46
2021/11/04 01:31:33;;;;;;;;;;;20.60;46.10;;;;;;474326;251;1176;-47
2021/11/04 01:33:34;;;;;;;;;;;20.50;46.20;;;;;;474212;251;1075;-47
2021/11/04 01:35:36;;;;;;;;;;;20.50;46.10;;;;;;474659;251;1110;-47
2021/11/04 01:37:37;;;;;;;;;;;20.60;46.10;;;;;;474214;251;1079;-47
2021/11/04 01:39:38;;;;;;;;;;;20.50;46.10;;;;;;474698;251;1083;-48
2021/11/04 01:41:40;;;;;;;;;;;20.60;46.20;;;;;;474616;251;1135;-47
2021/11/04 01:43:41;;;;;;;;;;;20.50;46.10;;;;;;474286;251;1114;-47
2021/11/04 01:45:42;;;;;;;;;;;20.50;46.10;;;;;;474702;251;2129;-47
2021/11/04 01:47:46;;;;;;;;;;;20.50;46.00;;;;;;474443;251;1217;-47
2021/11/04 01:49:45;;;;;;;;;;;20.50;46.10;;;;;;474478;251;1621;-47
2021/11/04 01:51:46;;;;;;;;;;;20.60;46.10;;;;;;474634;246;1194;-47
2021/11/04 01:53:48;;;;;;;;;;;20.50;46.10;;;;;;474712;251;1025;-47
2021/11/04 01:55:49;;;;;;;;;;;20.60;46.00;;;;;;474650;251;1079;-48
2021/11/04 01:57:50;;;;;;;;;;;20.60;46.10;;;;;;474684;251;1498;-47
2021/11/04 01:59:52;;;;;;;;;;;20.60;46.10;;;;;;474231;251;1389;-47
2021/11/04 02:01:53;;;;;;;;;;;20.60;46.10;;;;;;474204;247;1220;-47
2021/11/04 02:03:54;;;;;;;;;;;20.50;46.10;;;;;;474691;251;1080;-48
2021/11/04 02:05:56;;;;;;;;;;;20.60;46.10;;;;;;474436;251;2200;-47
2021/11/04 02:07:57;;;;;;;;;;;20.50;46.10;;;;;;474304;251;1096;-47
2021/11/04 02:09:59;;;;;;;;;;;20.60;46.10;;;;;;474552;251;1038;-47
2021/11/04 02:12:00;;;;;;;;;;;20.60;46.20;;;;;;474601;247;1364;-46
2021/11/04 02:14:01;;;;;;;;;;;20.50;46.10;;;;;;474294;251;1074;-48
2021/11/04 02:16:02;;;;;;;;;;;20.60;46.10;;;;;;474270;251;1121;-47
2021/11/04 02:18:07;;;;;;;;;;;20.60;46.10;;;;;;474255;251;1161;-48
2021/11/04 02:20:06;;;;;;;;;;;20.60;46.00;;;;;;474572;251;1779;-48
2021/11/04 02:22:08;;;;;;;;;;;20.60;46.10;;;;;;474451;251;1220;-47
2021/11/04 02:24:08;;;;;;;;;;;20.60;46.00;;;;;;474553;251;1087;-47
2021/11/04 02:26:10;;;;;;;;;;;20.60;46.10;;;;;;474218;251;2122;-47
2021/11/04 02:28:13;;;;;;;;;;;20.50;46.20;;;;;;474432;251;1198;-47
2021/11/04 02:30:13;;;;;;;;;;;20.50;46.10;;;;;;474560;251;1993;-47
2021/11/04 02:32:14;;;;;;;;;;;20.60;46.20;;;;;;474218;247;1256;-47
2021/11/04 02:34:15;;;;;;;;;;;20.60;46.10;;;;;;474324;251;1254;-47
2021/11/04 02:36:17;;;;;;;;;;;20.50;46.10;;;;;;474211;251;1248;-47
2021/11/04 02:38:18;;;;;;;;;;;20.60;46.10;;;;;;474484;251;1059;-47
2021/11/04 02:40:19;;;;;;;;;;;20.50;46.10;;;;;;474358;251;1261;-47
2021/11/04 02:42:21;;;;;;;;;;;20.60;46.10;;;;;;474156;251;1150;-47
2021/11/04 02:44:22;;;;;;;;;;;20.60;46.10;;;;;;474696;251;1058;-48
2021/11/04 02:46:23;;;;;;;;;;;20.60;46.10;;;;;;474162;251;2181;-47
2021/11/04 02:48:25;;;;;;;;;;;20.60;46.10;;;;;;474390;251;1337;-47
2021/11/04 02:50:26;;;;;;;;;;;20.50;46.10;;;;;;474614;251;1157;-47
2021/11/04 02:52:27;;;;;;;;;;;20.60;46.10;;;;;;474557;251;1507;-47
2021/11/04 02:54:29;;;;;;;;;;;20.50;46.20;;;;;;474633;251;1052;-47
2021/11/04 02:56:30;;;;;;;;;;;20.60;46.10;;;;;;474615;251;1169;-47
2021/11/04 02:58:31;;;;;;;;;;;20.60;46.10;;;;;;474602;251;1055;-48
2021/11/04 03:00:33;;;;;;;;;;;20.60;46.10;;;;;;474649;251;1058;-47
2021/11/04 03:02:34;;;;;;;;;;;20.60;46.20;;;;;;474669;251;1171;-47
2021/11/04 03:04:35;;;;;;;;;;;20.60;46.10;;;;;;474341;251;1259;-47
2021/11/04 03:06:36;;;;;;;;;;;20.60;46.10;;;;;;474219;251;2186;-47
2021/11/04 03:08:38;;;;;;;;;;;20.60;46.10;;;;;;474682;251;1070;-48
2021/11/04 03:10:39;;;;;;;;;;;20.60;46.10;;;;;;474212;251;1100;-47
2021/11/04 03:12:41;;;;;;;;;;;20.60;46.10;;;;;;474153;251;1204;-47
2021/11/04 03:14:42;;;;;;;;;;;20.60;46.00;;;;;;474614;251;1067;-48
2021/11/04 03:16:43;;;;;;;;;;;20.60;46.00;;;;;;474445;251;1079;-48
2021/11/04 03:18:44;;;;;;;;;;;20.60;46.00;;;;;;474219;251;1171;-48
2021/11/04 03:20:46;;;;;;;;;;;20.60;46.00;;;;;;474252;251;1491;-47
2021/11/04 03:22:47;;;;;;;;;;;20.60;46.10;;;;;;474195;251;1013;-47
2021/11/04 03:24:48;;;;;;;;;;;20.60;46.10;;;;;;474282;251;1066;-47
2021/11/04 03:26:50;;;;;;;;;;;20.60;46.20;;;;;;474646;251;2137;-47
2021/11/04 03:28:51;;;;;;;;;;;20.50;46.20;;;;;;474261;251;1084;-47
2021/11/04 03:30:52;;;;;;;;;;;20.60;46.10;;;;;;474626;251;974;-47
2021/11/04 03:32:54;;;;;;;;;;;20.50;46.10;;;;;;474356;251;1060;-47
2021/11/04 03:34:55;;;;;;;;;;;20.60;46.10;;;;;;474302;251;1222;-47
2021/11/04 03:36:56;;;;;;;;;;;20.60;46.10;;;;;;474182;251;1251;-47
2021/11/04 03:38:58;;;;;;;;;;;20.50;46.10;;;;;;474477;251;1123;-47
2021/11/04 03:41:00;;;;;;;;;;;20.50;46.10;;;;;;474491;251;1080;-47
2021/11/04 03:43:00;;;;;;;;;;;20.60;46.20;;;;;;474653;251;1627;-47
2021/11/04 03:45:01;;;;;;;;;;;20.60;46.20;;;;;;474665;251;2205;-47
2021/11/04 03:47:03;;;;;;;;;;;20.60;46.10;;;;;;474603;249;1143;-47
2021/11/04 03:49:04;;;;;;;;;;;20.60;46.10;;;;;;474489;251;1290;-47
2021/11/04 03:51:05;;;;;;;;;;;20.60;46.20;;;;;;474192;251;1138;-47
2021/11/04 03:53:07;;;;;;;;;;;20.50;46.20;;;;;;474663;251;1196;-47
2021/11/04 03:55:08;;;;;;;;;;;20.50;46.10;;;;;;474405;251;1094;-47
2021/11/04 03:57:09;;;;;;;;;;;20.60;46.20;;;;;;474424;251;1263;-47
2021/11/04 03:59:11;;;;;;;;;;;20.50;46.10;;;;;;474582;251;1078;-47
2021/11/04 04:01:12;;;;;;;;;;;20.60;46.10;;;;;;474193;251;1211;-47
2021/11/04 04:03:13;;;;;;;;;;;20.60;46.00;;;;;;474242;251;1086;-47
2021/11/04 04:05:15;;;;;;;;;;;20.60;46.10;;;;;;474312;251;2216;-47
2021/11/04 04:07:16;;;;;;;;;;;20.60;46.10;;;;;;474172;251;1106;-47
2021/11/04 04:09:17;;;;;;;;;;;20.50;46.10;;;;;;474685;251;1040;-47
2021/11/04 04:11:19;;;;;;;;;;;20.60;46.10;;;;;;474631;251;1226;-47
2021/11/04 04:13:20;;;;;;;;;;;20.60;46.10;;;;;;474446;251;2254;-47
2021/11/04 04:15:21;;;;;;;;;;;20.60;46.10;;;;;;474709;251;1052;-46
2021/11/04 04:17:23;;;;;;;;;;;20.60;46.10;;;;;;474498;251;1327;-47
2021/11/04 04:19:24;;;;;;;;;;;20.60;46.10;;;;;;474553;251;1197;-47
2021/11/04 04:21:25;;;;;;;;;;;20.60;46.00;;;;;;474430;251;1374;-47
2021/11/04 04:23:27;;;;;;;;;;;20.60;46.10;;;;;;474472;251;1068;-47
2021/11/04 04:25:30;;;;;;;;;;;20.50;46.10;;;;;;474201;251;2126;-47
2021/11/04 04:27:30;;;;;;;;;;;20.60;46.10;;;;;;474215;251;2045;-47
2021/11/04 04:29:32;;;;;;;;;;;20.50;46.10;;;;;;474272;251;1171;-47
2021/11/04 04:31:33;;;;;;;;;;;20.60;46.20;;;;;;474244;251;1024;-47
2021/11/04 04:33:34;;;;;;;;;;;20.50;46.10;;;;;;474308;251;985;-47
2021/11/04 04:35:36;;;;;;;;;;;20.50;46.10;;;;;;474317;251;1238;-48
2021/11/04 04:37:37;;;;;;;;;;;20.60;46.20;;;;;;474376;251;1197;-47
2021/11/04 04:39:38;;;;;;;;;;;20.50;46.20;;;;;;474641;251;1651;-47
2021/11/04 04:41:40;;;;;;;;;;;20.60;46.10;;;;;;474311;251;1443;-47
2021/11/04 04:43:41;;;;;;;;;;;20.50;46.10;;;;;;474522;251;1058;-47
2021/11/04 04:45:43;;;;;;;;;;;20.50;46.10;;;;;;474656;251;2196;-46
2021/11/04 04:47:44;;;;;;;;;;;20.60;46.20;;;;;;474224;251;1403;-47
2021/11/04 04:49:45;;;;;;;;;;;20.50;46.20;;;;;;474496;251;1234;-47
2021/11/04 04:51:47;;;;;;;;;;;20.50;46.20;;;;;;474153;251;1135;-47
2021/11/04 04:53:48;;;;;;;;;;;20.50;46.20;;;;;;474657;251;1031;-47
2021/11/04 04:55:49;;;;;;;;;;;20.50;46.20;;;;;;474187;251;1071;-47
2021/11/04 04:57:51;;;;;;;;;;;20.50;46.20;;;;;;474654;251;1404;-47
2021/11/04 04:59:52;;;;;;;;;;;20.50;46.20;;;;;;474253;251;1082;-47
2021/11/04 05:01:53;;;;;;;;;;;20.60;46.20;;;;;;474553;251;1398;-47
2021/11/04 05:03:55;;;;;;;;;;;20.50;46.20;;;;;;474174;251;1131;-47
2021/11/04 05:05:56;;;;;;;;;;;20.60;46.20;;;;;;474193;251;2189;-47
2021/11/04 05:07:57;;;;;;;;;;;20.60;46.20;;;;;;474534;251;1096;-47
2021/11/04 05:09:59;;;;;;;;;;;20.50;46.20;;;;;;474523;251;1097;-47
2021/11/04 05:12:00;;;;;;;;;;;20.60;46.20;;;;;;474137;247;1371;-47
2021/11/04 05:14:01;;;;;;;;;;;20.50;46.10;;;;;;474217;251;1078;-47
2021/11/04 05:16:03;;;;;;;;;;;20.60;46.20;;;;;;474471;251;1423;-47
2021/11/04 05:18:07;;;;;;;;;;;20.60;46.10;;;;;;474462;251;1234;-47
2021/11/04 05:20:05;;;;;;;;;;;20.60;46.10;;;;;;474032;251;2024;-47
2021/11/04 05:22:07;;;;;;;;;;;20.60;46.10;;;;;;474125;251;1150;-47
2021/11/04 05:24:09;;;;;;;;;;;20.50;46.10;;;;;;474634;251;1093;-47
2021/11/04 05:26:10;;;;;;;;;;;20.60;46.10;;;;;;474348;251;2613;-48
2021/11/04 05:28:11;;;;;;;;;;;20.60;46.10;;;;;;474535;251;1128;-47
2021/11/04 05:30:12;;;;;;;;;;;20.60;46.00;;;;;;474574;251;1050;-48
2021/11/04 05:32:16;;;;;;;;;;;20.60;46.10;;;;;;474397;251;1288;-47
2021/11/04 05:34:15;;;;;;;;;;;20.60;46.20;;;;;;473974;251;1738;-48
2021/11/04 05:36:16;;;;;;;;;;;20.60;46.10;;;;;;474101;251;1402;-47
2021/11/04 05:38:17;;;;;;;;;;;20.60;46.10;;;;;;474476;251;1184;-47
2021/11/04 05:40:19;;;;;;;;;;;20.60;46.10;;;;;;474045;251;1130;-47
2021/11/04 05:42:20;;;;;;;;;;;20.60;46.10;;;;;;474207;251;1221;-47
2021/11/04 05:44:21;;;;;;;;;;;20.50;46.10;;;;;;474503;251;1079;-47
2021/11/04 05:46:23;;;;;;;;;;;20.60;46.10;;;;;;474252;251;2185;-47
2021/11/04 05:48:24;;;;;;;;;;;20.60;46.10;;;;;;474231;251;1169;-47
2021/11/04 05:50:25;;;;;;;;;;;20.60;46.20;;;;;;474176;251;1343;-47
2021/11/04 05:52:27;;;;;;;;;;;20.50;46.20;;;;;;474406;251;1298;-47
2021/11/04 05:54:28;;;;;;;;;;;20.60;46.10;;;;;;474291;251;1206;-47
2021/11/04 05:56:29;;;;;;;;;;;20.60;45.90;;;;;;474219;251;1223;-47
2021/11/04 05:58:31;;;;;;;;;;;20.60;46.10;;;;;;474307;251;1052;-47
2021/11/04 06:00:32;;;;;;;;;;;20.60;46.10;;;;;;474270;251;1074;-47
2021/11/04 06:02:33;;;;;;;;;;;20.60;46.20;;;;;;474376;251;1361;-47
2021/11/04 06:04:36;;;;;;;;;;;20.60;46.20;;;;;;474088;251;1083;-47
2021/11/04 06:06:36;;;;;;;;;;;20.60;46.20;;;;;;473865;251;2356;-47
2021/11/04 06:08:37;;;;;;;;;;;20.60;46.10;;;;;;473977;251;1073;-47
2021/11/04 06:10:39;;;;;;;;;;;20.60;46.20;;;;;;473991;251;1096;-47
2021/11/04 06:12:40;;;;;;;;;;;20.60;46.10;;;;;;474069;251;1234;-47
2021/11/04 06:14:41;;;;;;;;;;;20.60;46.20;;;;;;473885;251;1064;-47
2021/11/04 06:16:42;;;;;;;;;;;20.60;46.20;;;;;;474085;251;1146;-47
2021/11/04 06:18:44;;;;;;;;;;;20.60;46.10;;;;;;474466;251;1132;-47
2021/11/04 06:20:45;;;;;;;;;;;20.60;46.10;;;;;;474185;251;1138;-47
2021/11/04 06:22:46;;;;;;;;;;;20.60;46.10;;;;;;474342;251;1108;-47
2021/11/04 06:24:48;;;;;;;;;;;20.60;46.10;;;;;;474336;251;1078;-47
2021/11/04 06:26:49;;;;;;;;;;;20.60;46.20;;;;;;474080;251;2208;-47
2021/11/04 06:28:50;;;;;;;;;;;20.60;46.20;;;;;;473999;251;1075;-47
2021/11/04 06:30:52;;;;;;;;;;;20.60;46.20;;;;;;474108;251;1060;-47
2021/11/04 06:32:53;;;;;;;;;;;20.60;46.10;;;;;;473962;251;1095;-47
2021/11/04 06:34:54;;;;;;;;;;;20.60;46.10;;;;;;473853;251;1273;-47
2021/11/04 06:36:56;;;;;;;;;;;20.60;46.10;;;;;;473794;251;1127;-47
2021/11/04 06:38:59;;;;;;;;;;;20.50;46.10;;;;;;473877;251;1172;-47
2021/11/04 06:40:58;;;;;;;;;;;20.50;46.20;;;;;;473664;251;1934;-47
2021/11/04 06:43:00;;;;;;;;;;;20.50;46.20;;;;;;473808;251;1053;-47
2021/11/04 06:45:01;;;;;;;;;;;20.50;46.20;;;;;;474074;251;1088;-48
2021/11/04 06:47:02;;;;;;;;;;;20.50;46.20;;;;;;474215;251;2217;-47
2021/11/04 06:49:04;;;;;;;;;;;20.60;46.20;;;;;;473791;251;1119;-47
2021/11/04 06:51:05;;;;;;;;;;;20.60;46.10;;;;;;473821;251;1175;-47
2021/11/04 06:53:06;;;;;;;;;;;20.60;46.10;;;;;;473842;251;1481;-47
2021/11/04 06:55:08;;;;;;;;;;;20.60;46.10;;;;;;473849;251;1125;-47
2021/11/04 06:57:09;;;;;;;;;;;20.50;46.10;;;;;;474098;251;1093;-47
2021/11/04 06:59:10;;;;;;;;;;;20.60;46.20;;;;;;473747;251;1047;-47
2021/11/04 07:01:12;;;;;;;;;;;20.60;46.20;;;;;;473690;251;1179;-47
2021/11/04 07:03:13;;;;;;;;;;;20.50;46.20;;;;;;473748;251;1077;-47
2021/11/04 07:05:14;;;;;;;;;;;20.50;46.20;;;;;;473739;251;1202;-48
2021/11/04 07:07:16;;;;;;;;;;;20.50;46.30;;;;;;473735;251;2205;-47
2021/11/04 07:09:17;;;;;;;;;;;20.60;46.20;;;;;;473835;251;1086;-47
2021/11/04 07:11:19;;;;;;;;;;;20.60;46.20;;;;;;473668;251;1387;-47
2021/11/04 07:13:20;;;;;;;;;;;20.50;46.10;;;;;;473825;251;1101;-47
2021/11/04 07:15:21;;;;;;;;;;;20.60;46.20;;;;;;473747;251;1083;-48
2021/11/04 07:17:23;;;;;;;;;;;20.60;46.10;;;;;;473739;251;1183;-47
2021/11/04 07:19:24;;;;;;;;;;;20.50;46.10;;;;;;474067;251;1070;-47
2021/11/04 07:21:25;;;;;;;;;;;20.60;46.00;;;;;;473723;251;1393;-47
2021/11/04 07:23:27;;;;;;;;;;;20.60;46.00;;;;;;473947;251;1097;-47
2021/11/04 07:25:28;;;;;;;;;;;20.60;45.90;;;;;;473908;251;1042;-47
2021/11/04 07:27:29;;;;;;;;;;;20.70;45.90;;;;;;473721;251;2161;-47
2021/11/04 07:29:31;;;;;;;;;;;20.60;45.80;;;;;;473722;251;1239;-47
2021/11/04 07:31:32;;;;;;;;;;;20.60;45.90;;;;;;474182;244;1267;-47
2021/11/04 07:33:33;;;;;;;;;;;20.60;45.80;;;;;;473739;251;1210;-47
2021/11/04 07:35:35;;;;;;;;;;;20.60;45.80;;;;;;473774;251;1183;-47
2021/11/04 07:37:36;;;;;;;;;;;20.60;45.80;;;;;;473671;251;1296;-47
2021/11/04 07:39:37;;;;;;;;;;;20.60;45.80;;;;;;473676;251;1075;-47
2021/11/04 07:41:39;;;;;;;;;;;20.60;45.80;;;;;;473538;251;1342;-47
2021/11/04 07:43:40;;;;;;;;;;;20.60;45.80;;;;;;473736;251;1077;-47
2021/11/04 07:45:41;;;;;;;;;;;20.60;45.80;;;;;;473526;251;1132;-47
2021/11/04 07:47:43;;;;;;;;;;;20.60;45.80;;;;;;473560;251;2205;-47
2021/11/04 07:49:44;;;;;;;;;;;20.60;45.80;;;;;;473680;251;1091;-48
2021/11/04 07:51:46;;;;;;;;;;;20.50;45.80;;;;;;473505;251;1253;-47
2021/11/04 07:53:46;;;;;;;;;;;20.50;45.80;;;;;;473657;251;2074;-47
2021/11/04 07:55:48;;;;;;;;;;;20.60;45.90;;;;;;473625;251;1175;-47
2021/11/04 07:57:49;;;;;;;;;;;20.50;45.80;;;;;;473519;251;1237;-47
2021/11/04 07:59:50;;;;;;;;;;;20.50;45.80;;;;;;473481;251;1504;-47
2021/11/04 08:01:52;;;;;;;;;;;20.50;45.80;;;;;;473313;251;1327;-47
2021/11/04 08:03:53;;;;;;;;;;;20.50;45.80;;;;;;473182;251;1090;-47
2021/11/04 08:05:54;;;;;;;;;;;20.50;45.80;;;;;;473069;251;1200;-47
2021/11/04 08:07:56;;;;;;;;;;;20.60;45.80;;;;;;473940;251;2174;-48
2021/11/04 08:09:57;;;;;;;;;;;20.60;45.60;;;;;;473374;251;1056;-47
2021/11/04 08:11:58;;;;;;;;;;;20.60;45.60;;;;;;473375;251;1227;-47
2021/11/04 08:14:00;;;;;;;;;;;20.60;45.70;;;;;;473393;251;1364;-47
2021/11/04 08:16:01;;;;;;;;;;;20.50;45.60;;;;;;473280;251;1336;-47
2021/11/04 08:18:03;;;;;;;;;;;20.50;45.70;;;;;;473385;251;1074;-47
2021/11/04 08:20:04;;;;;;;;;;;20.50;45.60;;;;;;473330;251;1156;-47
2021/11/04 08:22:05;;;;;;;;;;;20.50;45.60;;;;;;473399;251;1329;-47
2021/11/04 08:24:06;;;;;;;;;;;20.50;45.60;;;;;;473498;251;1107;-47
2021/11/04 08:26:08;;;;;;;;;;;20.50;45.60;;;;;;473341;251;1220;-47
2021/11/04 08:28:09;;;;;;;;;;;20.60;45.50;;;;;;473305;251;2181;-47
2021/11/04 08:30:16;;;;;;;;;;;20.60;45.50;;;;;;473403;251;1330;-47
2021/11/04 08:32:12;;;;;;;;;;;20.50;45.40;;;;;;473027;251;2112;-48
2021/11/04 08:34:13;;;;;;;;;;;20.60;45.50;;;;;;473532;251;1170;-47
2021/11/04 08:36:14;;;;;;;;;;;20.50;45.50;;;;;;473457;251;1340;-47
2021/11/04 08:38:16;;;;;;;;;;;20.60;45.40;;;;;;473538;251;1237;-47
2021/11/04 08:40:17;;;;;;;;;;;20.60;45.40;;;;;;473498;251;1248;-47
2021/11/04 08:42:18;;;;;;;;;;;20.50;45.40;;;;;;473394;251;1208;-47
2021/11/04 08:44:20;;;;;;;;;;;20.50;45.30;;;;;;473322;251;1072;-47
2021/11/04 08:46:21;;;;;;;;;;;20.50;45.30;;;;;;473295;251;1318;-47
2021/11/04 08:48:23;;;;;;;;;;;20.50;45.30;;;;;;473305;251;2192;-47
2021/11/04 08:50:24;;;;;;;;;;;20.50;45.40;;;;;;473285;251;1166;-47
2021/11/04 08:52:26;;;;;;;;;;;20.50;45.30;;;;;;473569;251;1217;-47
2021/11/04 08:54:27;;;;;;;;;;;20.50;45.30;;;;;;473455;251;1094;-47
2021/11/04 08:56:28;;;;;;;;;;;20.50;45.30;;;;;;473367;251;1665;-48
2021/11/04 08:58:29;;;;;;;;;;;20.50;45.20;;;;;;473852;251;1117;-48
2021/11/04 09:00:31;;;;;;;;;;;20.50;45.40;;;;;;473600;251;1128;-47
2021/11/04 09:02:32;;;;;;;;;;;20.50;45.30;;;;;;473536;251;1218;-47
2021/11/04 09:04:33;;;;;;;;;;;20.50;45.30;;;;;;473779;251;1224;-47
2021/11/04 09:06:35;;;;;;;;;;;20.50;45.20;;;;;;473662;251;1221;-47
2021/11/04 09:08:36;;;;;;;;;;;20.50;45.10;;;;;;473847;251;2300;-47
2021/11/04 09:10:37;;;;;;;;;;;20.60;45.10;;;;;;473672;251;903;-47
2021/11/04 09:12:38;;;;;;;;;;;20.50;45.20;;;;;;473527;251;1184;-48
2021/11/04 09:14:40;;;;;;;;;;;20.60;45.10;;;;;;473485;251;1065;-47
2021/11/04 09:16:41;;;;;;;;;;;20.50;45.00;;;;;;473619;251;1246;-47
2021/11/04 09:18:42;;;;;;;;;;;20.60;45.00;;;;;;473251;251;1187;-47
2021/11/04 09:20:44;;;;;;;;;;;20.60;44.90;;;;;;473183;251;1223;-47
2021/11/04 09:22:46;;;;;;;;;;;20.60;44.80;;;;;;473577;251;1312;-47
2021/11/04 09:24:47;;;;;;;;;;;20.60;45.00;;;;;;473353;251;2249;-47
2021/11/04 09:26:48;;;;;;;;;;;20.60;44.90;;;;;;473388;251;1194;-47
2021/11/04 09:28:49;;;;;;;;;;;20.60;44.90;;;;;;473356;251;2122;-48
2021/11/04 09:30:51;;;;;;;;;;;20.60;44.90;;;;;;473289;251;1216;-47
2021/11/04 09:32:52;;;;;;;;;;;20.50;44.90;;;;;;473405;251;1236;-47
2021/11/04 09:34:53;;;;;;;;;;;20.50;44.90;;;;;;473431;251;1311;-47
2021/11/04 09:36:55;;;;;;;;;;;20.50;44.90;;;;;;473540;251;1205;-47
2021/11/04 09:38:56;;;;;;;;;;;20.50;44.90;;;;;;473682;251;1213;-47
2021/11/04 09:40:57;;;;;;;;;;;20.50;44.90;;;;;;473502;251;1146;-47
2021/11/04 09:42:59;;;;;;;;;;;20.60;44.80;;;;;;473793;251;1286;-47
2021/11/04 09:45:00;;;;;;;;;;;20.60;44.80;;;;;;473427;251;1142;-47
2021/11/04 09:47:01;;;;;;;;;;;20.60;44.80;;;;;;473615;251;1163;-47
2021/11/04 09:49:03;;;;;;;;;;;20.60;44.70;;;;;;473507;251;879;-47
2021/11/04 09:51:04;;;;;;;;;;;20.60;44.70;;;;;;473498;251;1103;-47
2021/11/04 09:53:06;;;;;;;;;;;20.60;44.70;;;;;;474002;251;1153;-47
2021/11/04 09:55:07;;;;;;;;;;;20.60;44.70;;;;;;473605;251;848;-47
2021/11/04 09:57:08;;;;;;;;;;;20.60;44.60;;;;;;474053;251;1153;-47
2021/11/04 09:59:10;;;;;;;;;;;20.60;44.60;;;;;;473605;251;1087;-47
2021/11/04 10:01:11;;;;;;;;;;;20.60;44.70;;;;;;473342;246;1367;-48
2021/11/04 10:03:13;;;;;;;;;;;20.60;44.60;;;;;;473438;251;1087;-47
2021/11/04 10:05:14;;;;;;;;;;;20.60;44.60;;;;;;473508;251;1114;-47
2021/11/04 10:07:15;;;;;;;;;;;20.60;44.70;;;;;;473359;251;2192;-47
2021/11/04 10:09:17;;;;;;;;;;;20.60;44.60;;;;;;473441;251;1227;-47
2021/11/04 10:11:19;;;;;;;;;;;20.60;44.60;;;;;;473364;251;1346;-47
2021/11/04 10:13:20;;;;;;;;;;;20.60;44.60;;;;;;473313;251;1651;-48
2021/11/04 10:15:21;;;;;;;;;;;20.60;44.60;;;;;;473303;251;1055;-47
2021/11/04 10:17:22;;;;;;;;;;;20.60;44.70;;;;;;473259;251;1148;-47
2021/11/04 10:19:24;;;;;;;;;;;20.60;44.60;;;;;;473237;251;1280;-47
2021/11/04 10:21:25;;;;;;;;;;;20.50;44.60;;;;;;473304;246;1355;-47
2021/11/04 10:23:26;;;;;;;;;;;20.50;44.70;;;;;;473216;251;1196;-47
2021/11/04 10:25:28;;;;;;;;;;;20.60;44.70;;;;;;473143;251;1228;-47
2021/11/04 10:27:29;;;;;;;;;;;20.60;44.70;;;;;;473168;251;2189;-47
2021/11/04 10:29:30;;;;;;;;;;;20.50;44.60;;;;;;473244;251;1117;-47
2021/11/04 10:31:32;;;;;;;;;;;20.50;44.70;;;;;;473192;246;1383;-47
2021/11/04 10:33:33;;;;;;;;;;;20.50;44.60;;;;;;473474;251;1460;-47
2021/11/04 10:35:34;;;;;;;;;;;20.50;44.70;;;;;;473445;251;1101;-47
2021/11/04 10:37:36;;;;;;;;;;;20.40;44.70;;;;;;473262;251;1088;-47
2021/11/04 10:39:37;;;;;;;;;;;20.40;44.70;;;;;;473375;251;1135;-47
2021/11/04 10:41:39;;;;;;;;;;;20.50;44.80;;;;;;473347;251;1261;-47
2021/11/04 10:43:40;;;;;;;;;;;20.40;44.70;;;;;;474102;251;1130;-47
2021/11/04 10:45:41;;;;;;;;;;;20.50;44.70;;;;;;474089;251;838;-47
2021/11/04 10:47:42;;;;;;;;;;;20.50;44.80;;;;;;473765;251;2200;-47
2021/11/04 10:49:44;;;;;;;;;;;20.50;44.80;;;;;;473209;251;1099;-47
2021/11/04 10:51:45;;;;;;;;;;;20.50;44.70;;;;;;473391;251;1156;-47
2021/11/04 10:53:46;;;;;;;;;;;20.50;44.70;;;;;;473365;251;1047;-47
2021/11/04 10:55:48;;;;;;;;;;;20.50;44.60;;;;;;473324;251;1338;-47
2021/11/04 10:57:49;;;;;;;;;;;20.50;44.60;;;;;;473216;251;1250;-47
2021/11/04 10:59:50;;;;;;;;;;;20.60;44.50;;;;;;473315;251;1181;-47
2021/11/04 11:01:52;;;;;;;;;;;20.50;44.50;;;;;;473189;251;1166;-47
2021/11/04 11:03:53;;;;;;;;;;;20.60;44.60;;;;;;473362;251;1079;-47
2021/11/04 11:05:57;;;;;;;;;;;20.60;44.50;;;;;;473238;251;1360;-47
2021/11/04 11:07:57;;;;;;;;;;;20.60;44.50;;;;;;473563;251;2182;-47
2021/11/04 11:09:59;;;;;;;;;;;20.60;44.40;;;;;;473531;251;1298;-47
2021/11/04 11:12:00;;;;;;;;;;;20.70;44.40;;;;;;473468;251;1258;-47
2021/11/04 11:14:02;;;;;;;;;;;20.60;44.30;;;;;;473424;251;1138;-47
2021/11/04 11:16:03;;;;;;;;;;;20.60;44.30;;;;;;473287;251;1282;-47
2021/11/04 11:18:05;;;;;;;;;;;20.60;44.30;;;;;;473465;251;1080;-47
2021/11/04 11:20:06;;;;;;;;;;;20.70;44.20;;;;;;472685;251;1128;-47
2021/11/04 11:22:07;;;;;;;;;;;20.70;44.20;;;;;;473485;251;1248;-47
2021/11/04 11:24:09;;;;;;;;;;;20.70;44.20;;;;;;473454;251;1201;-47
2021/11/04 11:26:12;;;;;;;;;;;20.80;44.20;;;;;;473465;251;1355;-47
2021/11/04 11:28:12;;;;;;;;;;;20.80;44.10;;;;;;473388;251;2348;-47
2021/11/04 11:30:13;;;;;;;;;;;20.80;44.10;;;;;;473290;251;1320;-47
2021/11/04 11:32:14;;;;;;;;;;;20.80;44.10;;;;;;473287;251;1137;-47
2021/11/04 11:34:16;;;;;;;;;;;20.70;44.00;;;;;;473479;251;1117;-47
2021/11/04 11:36:17;;;;;;;;;;;20.80;44.10;;;;;;473420;251;1091;-47
2021/11/04 11:38:19;;;;;;;;;;;20.80;44.10;;;;;;473433;251;1273;-47
2021/11/04 11:40:20;;;;;;;;;;;20.80;44.00;;;;;;473441;251;1235;-47
2021/11/04 11:42:22;;;;;;;;;;;20.80;43.90;;;;;;473312;250;1315;-47
2021/11/04 11:44:23;;;;;;;;;;;20.80;43.90;;;;;;473406;251;1084;-47
2021/11/04 11:46:24;;;;;;;;;;;20.80;44.00;;;;;;473355;251;1404;-48
2021/11/04 11:48:26;;;;;;;;;;;20.80;44.00;;;;;;473340;251;2193;-47
2021/11/04 11:50:28;;;;;;;;;;;20.80;44.00;;;;;;473230;251;1129;-47
2021/11/04 11:52:28;;;;;;;;;;;20.80;44.00;;;;;;473191;251;1560;-47
2021/11/04 11:54:30;;;;;;;;;;;20.80;44.00;;;;;;473439;251;1050;-47
2021/11/04 11:56:33;;;;;;;;;;;20.90;43.90;;;;;;473456;251;1212;-47